createdAt,value
2023-03-18T00:03:00.436Z,11.93
2023-03-18T00:06:09.213Z,10.93
2023-03-18T00:09:14.497Z,10.87
2023-03-18T00:12:17.672Z,13.20
2023-03-18T00:15:21.578Z,9.90
2023-03-18T00:18:24.847Z,9.73
2023-03-18T00:21:28.162Z,9.93
2023-03-18T00:24:32.830Z,15.30
2023-03-18T00:27:36.663Z,9.80
2023-03-18T00:30:42.077Z,11.27
2023-03-18T00:33:46.166Z,9.83
2023-03-18T00:36:51.137Z,9.33
2023-03-18T00:39:55.754Z,10.97
2023-03-18T00:43:07.856Z,9.03
2023-03-18T00:46:11.768Z,11.40
2023-03-18T00:49:15.488Z,8.80
2023-03-18T00:52:19.699Z,9.60
2023-03-18T00:55:24.323Z,12.17
2023-03-18T00:58:27.534Z,10.07
2023-03-18T01:01:31.423Z,9.53
2023-03-18T01:04:34.845Z,11.03
2023-03-18T01:07:38.058Z,12.90
2023-03-18T01:10:42.821Z,10.87
2023-03-18T01:13:47.570Z,19.37
2023-03-18T01:16:50.794Z,10.97
2023-03-18T01:19:54.101Z,9.97
2023-03-18T01:22:58.578Z,9.80
2023-03-18T01:26:03.656Z,9.43
2023-03-18T01:29:06.966Z,12.47
2023-03-18T01:32:10.185Z,12.20
2023-03-18T01:35:13.447Z,10.50
2023-03-18T01:38:16.627Z,9.30
2023-03-18T01:41:21.177Z,14.73
2023-03-18T01:44:25.691Z,10.10
2023-03-18T01:47:29.762Z,9.10
2023-03-18T01:50:34.656Z,13.83
2023-03-18T01:53:43.047Z,10.07
2023-03-18T01:56:50.566Z,11.23
2023-03-18T01:59:56.193Z,8.33
2023-03-18T02:03:00.301Z,9.47
2023-03-18T02:06:04.327Z,13.10
2023-03-18T02:09:08.451Z,9.80
2023-03-18T02:12:14.680Z,10.37
2023-03-18T02:15:19.860Z,9.20
2023-03-18T02:18:28.514Z,8.90
2023-03-18T02:21:41.820Z,11.57
2023-03-18T02:24:56.002Z,9.37
2023-03-18T02:28:04.313Z,11.30
2023-03-18T02:31:11.976Z,9.00
2023-03-18T02:34:15.910Z,10.73
2023-03-18T02:37:19.072Z,10.70
2023-03-18T02:40:27.990Z,12.13
2023-03-18T02:43:33.916Z,8.37
2023-03-18T02:46:46.452Z,9.00
2023-03-18T02:49:49.842Z,12.10
2023-03-18T02:52:53.016Z,10.37
2023-03-18T02:55:56.750Z,9.37
2023-03-18T02:59:01.613Z,13.77
2023-03-18T03:02:04.838Z,10.07
2023-03-18T03:05:09.280Z,9.03
2023-03-18T03:08:12.601Z,10.10
2023-03-18T03:11:16.198Z,7.33
2023-03-18T03:14:20.911Z,12.60
2023-03-18T03:17:24.260Z,7.40
2023-03-18T03:20:27.577Z,9.23
2023-03-18T03:23:31.157Z,9.23
2023-03-18T03:26:35.099Z,11.40
2023-03-18T03:29:39.805Z,8.83
2023-03-18T03:32:43.104Z,7.93
2023-03-18T03:35:46.310Z,14.43
2023-03-18T03:38:49.547Z,8.07
2023-03-18T03:41:52.946Z,13.10
2023-03-18T03:44:57.561Z,9.60
2023-03-18T03:48:01.098Z,11.17
2023-03-18T03:51:04.635Z,9.57
2023-03-18T03:54:07.890Z,8.60
2023-03-18T03:57:11.880Z,9.93
2023-03-18T04:00:19.047Z,10.80
2023-03-18T04:03:22.228Z,12.73
2023-03-18T04:06:25.389Z,11.30
2023-03-18T04:09:28.593Z,8.20
2023-03-18T04:12:32.065Z,8.90
2023-03-18T04:15:36.641Z,8.40
2023-03-18T04:18:40.245Z,8.80
2023-03-18T04:21:44.130Z,9.03
2023-03-18T04:24:47.579Z,8.90
2023-03-18T04:27:52.622Z,9.20
2023-03-18T04:30:57.158Z,11.90
2023-03-18T04:34:00.467Z,8.90
2023-03-18T04:37:04.003Z,10.00
2023-03-18T04:40:08.509Z,12.60
2023-03-18T04:43:11.691Z,12.10
2023-03-18T04:46:16.816Z,9.03
2023-03-18T04:49:20.080Z,8.10
2023-03-18T04:52:23.291Z,9.67
2023-03-18T04:55:26.460Z,10.30
2023-03-18T04:58:29.809Z,9.97
2023-03-18T05:01:34.664Z,9.80
2023-03-18T05:04:39.315Z,11.17
2023-03-18T05:07:43.311Z,14.10
2023-03-18T05:10:47.605Z,9.80
2023-03-18T05:13:50.903Z,10.80
2023-03-18T05:16:55.563Z,11.37
2023-03-18T05:19:58.729Z,8.70
2023-03-18T05:23:02.088Z,8.13
2023-03-18T05:26:05.819Z,12.43
2023-03-18T05:29:09.219Z,10.30
2023-03-18T05:32:15.043Z,8.90
2023-03-18T05:35:19.391Z,9.83
2023-03-18T05:38:22.633Z,10.37
2023-03-18T05:41:25.944Z,9.33
2023-03-18T05:44:29.490Z,10.87
2023-03-18T05:47:34.070Z,12.27
2023-03-18T05:50:43.246Z,10.93
2023-03-18T05:53:46.393Z,16.40
2023-03-18T05:56:49.973Z,12.80
2023-03-18T05:59:53.692Z,10.23
2023-03-18T06:02:59.474Z,8.00
2023-03-18T06:06:02.939Z,7.67
2023-03-18T06:09:06.997Z,9.83
2023-03-18T06:12:10.438Z,10.90
2023-03-18T06:15:14.731Z,12.33
2023-03-18T06:18:19.311Z,9.23
2023-03-18T06:21:22.656Z,12.23
2023-03-18T06:24:27.233Z,8.93
2023-03-18T06:27:30.409Z,10.10
2023-03-18T06:30:33.822Z,13.50
2023-03-18T06:33:38.539Z,8.30
2023-03-18T06:36:42.216Z,12.90
2023-03-18T06:39:45.479Z,11.13
2023-03-18T06:42:49.008Z,9.47
2023-03-18T06:45:52.764Z,9.87
2023-03-18T06:48:57.315Z,11.10
2023-03-18T06:52:00.488Z,12.10
2023-03-18T06:55:03.824Z,9.30
2023-03-18T06:58:07.336Z,11.87
2023-03-18T07:01:12.555Z,10.87
2023-03-18T07:04:17.401Z,10.50
2023-03-18T07:07:21.221Z,10.30
2023-03-18T07:10:27.382Z,11.70
2023-03-18T07:13:30.563Z,8.93
2023-03-18T07:16:33.776Z,9.30
2023-03-18T07:19:38.385Z,8.83
2023-03-18T07:22:42.408Z,8.80
2023-03-18T07:25:46.362Z,11.60
2023-03-18T07:28:49.712Z,8.30
2023-03-18T07:31:52.868Z,10.10
2023-03-18T07:34:57.849Z,10.70
2023-03-18T07:38:01.029Z,9.30
2023-03-18T07:41:04.230Z,10.17
2023-03-18T07:44:08.268Z,10.43
2023-03-18T07:47:12.029Z,11.13
2023-03-18T07:50:17.311Z,10.60
2023-03-18T07:53:21.125Z,10.23
2023-03-18T07:56:24.320Z,11.43
2023-03-18T07:59:27.573Z,11.77
2023-03-18T08:02:30.750Z,10.90
2023-03-18T08:05:35.419Z,10.10
2023-03-18T08:08:38.704Z,10.33
2023-03-18T08:11:42.517Z,9.97
2023-03-18T08:14:45.748Z,10.20
2023-03-18T08:17:48.943Z,9.30
2023-03-18T08:20:54.745Z,9.65
2023-03-18T08:23:58.142Z,10.45
2023-03-18T08:27:01.358Z,10.68
2023-03-18T08:30:05.103Z,9.57
2023-03-18T08:33:08.455Z,10.90
2023-03-18T08:36:13.293Z,8.98
2023-03-18T08:39:16.705Z,10.55
2023-03-18T08:42:20.218Z,10.23
2023-03-18T08:45:23.477Z,9.88
2023-03-18T08:48:27.074Z,12.05
2023-03-18T08:51:32.675Z,10.70
2023-03-18T08:54:35.911Z,10.45
2023-03-18T08:57:39.136Z,10.30
2023-03-18T09:00:43.024Z,10.48
2023-03-18T09:03:46.974Z,10.35
2023-03-18T09:06:51.592Z,11.18
2023-03-18T09:09:55.279Z,11.45
2023-03-18T09:12:59.353Z,10.65
2023-03-18T09:16:02.617Z,10.02
2023-03-18T09:19:05.900Z,9.82
2023-03-18T09:22:11.380Z,10.80
2023-03-18T09:25:16.742Z,10.63
2023-03-18T09:28:20.000Z,10.10
2023-03-18T09:31:23.240Z,9.90
2023-03-18T09:34:26.469Z,10.30
2023-03-18T09:37:31.032Z,10.25
2023-03-18T09:40:38.477Z,10.13
2023-03-18T09:43:57.436Z,9.80
2023-03-18T09:47:21.382Z,11.48
2023-03-18T09:50:35.090Z,10.18
2023-03-18T09:53:45.243Z,10.85
2023-03-18T09:56:49.470Z,10.90
2023-03-18T09:59:56.830Z,9.85
2023-03-18T10:03:06.349Z,9.95
2023-03-18T10:06:16.918Z,10.05
2023-03-18T10:09:28.651Z,11.07
2023-03-18T10:12:33.980Z,9.98
2023-03-18T10:15:41.518Z,10.18
2023-03-18T10:18:45.625Z,10.90
2023-03-18T10:21:59.499Z,10.23
2023-03-18T10:25:12.643Z,10.07
2023-03-18T10:28:37.447Z,10.88
2023-03-18T10:31:53.817Z,10.68
2023-03-18T10:35:09.474Z,9.85
2023-03-18T10:38:20.691Z,8.98
2023-03-18T10:41:30.912Z,11.75
2023-03-18T10:44:36.811Z,10.05
2023-03-18T10:47:46.206Z,10.07
2023-03-18T10:50:57.868Z,11.45
2023-03-18T10:54:07.436Z,10.25
2023-03-18T10:57:15.870Z,11.52
2023-03-18T11:00:28.488Z,11.75
2023-03-18T11:03:36.188Z,11.68
2023-03-18T11:06:45.858Z,9.48
2023-03-18T11:09:49.120Z,11.60
2023-03-18T11:13:00.287Z,10.32
2023-03-18T11:16:04.509Z,11.10
2023-03-18T11:19:29.101Z,11.05
2023-03-18T11:22:33.220Z,12.00
2023-03-18T11:25:36.945Z,10.55
2023-03-18T11:28:43.291Z,10.68
2023-03-18T11:32:04.404Z,10.77
2023-03-18T11:35:08.937Z,10.95
2023-03-18T11:38:18.505Z,11.35
2023-03-18T11:41:25.795Z,10.70
2023-03-18T11:44:32.485Z,11.32
2023-03-18T11:47:39.083Z,11.07
2023-03-18T11:51:02.458Z,11.68
2023-03-18T11:54:19.224Z,10.70
2023-03-18T11:57:28.681Z,11.93
2023-03-18T12:00:39.118Z,12.15
2023-03-18T12:04:11.904Z,11.77
2023-03-18T12:07:42.979Z,11.23
2023-03-18T12:10:52.420Z,10.63
2023-03-18T12:14:04.597Z,11.95
2023-03-18T12:17:21.574Z,11.50
2023-03-18T12:20:40.651Z,11.40
2023-03-18T12:24:11.102Z,11.05
2023-03-18T12:27:21.266Z,11.23
2023-03-18T12:30:47.335Z,10.90
2023-03-18T12:33:58.382Z,11.35
2023-03-18T12:37:17.245Z,11.23
2023-03-18T12:40:46.292Z,10.77
2023-03-18T12:44:11.950Z,11.80
2023-03-18T12:47:21.784Z,11.60
2023-03-18T12:50:29.438Z,12.68
2023-03-18T12:53:36.785Z,13.85
2023-03-18T12:56:45.154Z,12.57
2023-03-18T12:59:56.762Z,12.55
2023-03-18T13:03:07.437Z,13.50
2023-03-18T13:06:17.358Z,14.52
2023-03-18T13:09:28.028Z,14.82
2023-03-18T13:12:33.779Z,13.98
2023-03-18T13:15:42.716Z,14.68
2023-03-18T13:18:51.776Z,14.13
2023-03-18T13:22:08.850Z,14.18
2023-03-18T13:25:23.763Z,15.18
2023-03-18T13:28:43.897Z,12.77
2023-03-18T13:31:53.913Z,15.27
2023-03-18T13:35:50.656Z,13.38
2023-03-18T13:39:16.856Z,13.82
2023-03-18T13:42:25.998Z,14.57
2023-03-18T13:45:32.318Z,15.15
2023-03-18T13:48:36.958Z,15.40
2023-03-18T13:51:51.641Z,14.20
2023-03-18T13:55:02.414Z,15.10
2023-03-18T13:58:22.853Z,14.77
2023-03-18T14:01:34.022Z,14.27
2023-03-18T14:04:47.448Z,14.63
2023-03-18T14:07:50.847Z,15.03
2023-03-18T14:11:45.375Z,17.37
2023-03-18T14:15:30.869Z,16.00
2023-03-18T14:18:37.117Z,12.60
2023-03-18T14:21:48.377Z,14.70
2023-03-18T14:25:35.497Z,14.00
2023-03-18T14:28:51.095Z,17.90
2023-03-18T14:31:59.426Z,15.47
2023-03-18T14:35:27.823Z,13.37
2023-03-18T14:38:37.432Z,12.23
2023-03-18T14:41:45.966Z,14.67
2023-03-18T14:44:54.645Z,15.77
2023-03-18T14:47:59.703Z,14.07
2023-03-18T14:51:06.706Z,13.57
2023-03-18T14:54:21.718Z,13.60
2023-03-18T14:57:25.906Z,13.97
2023-03-18T15:00:34.203Z,12.10
2023-03-18T15:03:40.090Z,13.47
2023-03-18T15:06:43.700Z,16.30
2023-03-18T15:09:49.827Z,12.20
2023-03-18T15:13:01.286Z,13.33
2023-03-18T15:16:07.806Z,14.50
2023-03-18T15:19:13.058Z,13.90
2023-03-18T15:22:26.007Z,15.93
2023-03-18T15:25:29.854Z,12.10
2023-03-18T15:28:33.985Z,14.00
2023-03-18T15:31:45.698Z,14.97
2023-03-18T15:34:54.143Z,14.33
2023-03-18T15:38:16.184Z,13.43
2023-03-18T15:41:21.882Z,12.70
2023-03-18T15:44:28.677Z,16.00
2023-03-18T15:47:34.201Z,13.30
2023-03-18T15:50:38.302Z,12.40
2023-03-18T15:53:43.277Z,11.90
2023-03-18T15:56:49.082Z,12.90
2023-03-18T15:59:52.249Z,11.03
2023-03-18T16:02:56.834Z,15.20
2023-03-18T16:06:00.433Z,12.40
2023-03-18T16:09:15.704Z,14.33
2023-03-18T16:12:21.921Z,12.53
2023-03-18T16:15:27.919Z,12.17
2023-03-18T16:18:32.896Z,12.97
2023-03-18T16:21:36.549Z,12.10
2023-03-18T16:24:41.626Z,14.77
2023-03-18T16:27:48.346Z,13.00
2023-03-18T16:30:53.756Z,18.53
2023-03-18T16:33:58.732Z,12.77
2023-03-18T16:37:02.331Z,12.20
2023-03-18T16:40:14.918Z,13.20
2023-03-18T16:43:22.264Z,14.17
2023-03-18T16:46:27.784Z,11.20
2023-03-18T16:49:36.654Z,12.43
2023-03-18T16:52:40.019Z,14.40
2023-03-18T16:55:43.969Z,11.27
2023-03-18T16:58:47.775Z,11.80
2023-03-18T17:01:52.027Z,13.30
2023-03-18T17:04:57.612Z,13.47
2023-03-18T17:08:01.137Z,11.63
2023-03-18T17:11:05.946Z,11.10
2023-03-18T17:14:15.662Z,15.07
2023-03-18T17:17:25.293Z,23.57
2023-03-18T17:20:32.493Z,88.67
2023-03-18T17:23:35.979Z,48.90
2023-03-18T17:26:39.181Z,24.33
2023-03-18T17:29:42.416Z,19.83
2023-03-18T17:32:47.050Z,24.93
2023-03-18T17:35:52.528Z,18.90
2023-03-18T17:38:59.865Z,22.37
2023-03-18T17:42:04.657Z,19.50
2023-03-18T17:45:17.601Z,16.83
2023-03-18T17:48:25.194Z,18.60
2023-03-18T17:51:31.655Z,15.10
2023-03-18T17:54:36.284Z,20.27
2023-03-18T17:57:40.246Z,15.50
2023-03-18T18:00:44.320Z,19.53
2023-03-18T18:03:49.307Z,26.80
2023-03-18T18:06:58.454Z,19.37
2023-03-18T18:10:03.096Z,17.90
2023-03-18T18:13:15.093Z,20.90
2023-03-18T18:16:20.292Z,18.67
2023-03-18T18:19:24.765Z,17.87
2023-03-18T18:22:30.034Z,20.10
2023-03-18T18:25:35.904Z,18.90
2023-03-18T18:28:45.342Z,16.30
2023-03-18T18:31:50.412Z,16.33
2023-03-18T18:34:55.013Z,16.67
2023-03-18T18:38:01.775Z,18.37
2023-03-18T18:41:08.514Z,16.37
2023-03-18T18:44:12.623Z,15.23
2023-03-18T18:47:20.614Z,16.83
2023-03-18T18:50:31.562Z,18.90
2023-03-18T18:53:38.511Z,16.07
2023-03-18T18:56:46.670Z,13.97
2023-03-18T18:59:50.921Z,15.60
2023-03-18T19:02:59.573Z,16.77
2023-03-18T19:06:07.431Z,14.07
2023-03-18T19:09:19.455Z,14.60
2023-03-18T19:12:23.550Z,15.13
2023-03-18T19:15:28.225Z,16.03
2023-03-18T19:18:38.954Z,18.87
2023-03-18T19:21:46.115Z,13.83
2023-03-18T19:24:52.250Z,14.90
2023-03-18T19:27:58.774Z,14.20
2023-03-18T19:31:05.046Z,15.20
2023-03-18T19:34:17.207Z,15.87
2023-03-18T19:37:26.451Z,20.70
2023-03-18T19:40:34.107Z,20.63
2023-03-18T19:43:41.968Z,17.23
2023-03-18T19:46:48.197Z,18.73
2023-03-18T19:49:53.632Z,14.13
2023-03-18T19:52:59.306Z,16.00
2023-03-18T19:56:07.851Z,15.60
2023-03-18T19:59:21.682Z,18.50
2023-03-18T20:02:29.426Z,17.23
2023-03-18T20:05:35.577Z,21.03
2023-03-18T20:08:42.543Z,15.70
2023-03-18T20:11:50.280Z,15.00
2023-03-18T20:14:56.766Z,20.13
2023-03-18T20:18:01.588Z,15.47
2023-03-18T20:21:06.887Z,18.87
2023-03-18T20:24:14.757Z,21.93
2023-03-18T20:27:20.947Z,16.47
2023-03-18T20:30:28.321Z,16.40
2023-03-18T20:33:35.847Z,17.50
2023-03-18T20:36:41.097Z,16.50
2023-03-18T20:39:46.010Z,18.30
2023-03-18T20:42:53.378Z,17.63
2023-03-18T20:46:00.611Z,18.00
2023-03-18T20:49:05.744Z,18.20
2023-03-18T20:52:26.033Z,22.03
2023-03-18T20:55:33.990Z,20.10
2023-03-18T20:58:40.085Z,16.50
2023-03-18T21:01:44.634Z,18.97
2023-03-18T21:04:48.747Z,17.60
2023-03-18T21:07:53.597Z,20.33
2023-03-18T21:11:01.589Z,16.17
2023-03-18T21:14:07.386Z,19.90
2023-03-18T21:17:19.078Z,19.87
2023-03-18T21:20:27.537Z,17.03
2023-03-18T21:23:37.227Z,19.97
2023-03-18T21:26:43.208Z,19.70
2023-03-18T21:29:54.655Z,17.10
2023-03-18T21:32:58.486Z,16.43
2023-03-18T21:36:02.656Z,21.17
2023-03-18T21:39:07.383Z,15.90
2023-03-18T21:42:29.950Z,17.70
2023-03-18T21:45:35.907Z,18.10
2023-03-18T21:48:40.153Z,23.90
2023-03-18T21:51:43.777Z,21.43
2023-03-18T21:54:47.899Z,20.27
2023-03-18T21:57:51.094Z,18.43
2023-03-18T22:00:57.903Z,20.97
2023-03-18T22:04:01.560Z,22.40
2023-03-18T22:07:05.140Z,19.53
2023-03-18T22:10:09.373Z,19.73
2023-03-18T22:13:20.503Z,21.80
2023-03-18T22:16:25.152Z,17.37
2023-03-18T22:19:28.349Z,15.57
2023-03-18T22:22:36.754Z,14.77
2023-03-18T22:25:41.766Z,15.83
2023-03-18T22:28:45.316Z,17.50
2023-03-18T22:31:49.949Z,21.07
2023-03-18T22:34:53.187Z,18.33
2023-03-18T22:37:57.499Z,17.37
2023-03-18T22:41:00.679Z,19.27
2023-03-18T22:44:03.800Z,16.03
2023-03-18T22:47:14.681Z,21.23
2023-03-18T22:50:18.402Z,19.87
2023-03-18T22:53:23.552Z,16.27
2023-03-18T22:56:26.696Z,21.07
2023-03-18T22:59:29.849Z,18.93
2023-03-18T23:02:34.409Z,17.57
2023-03-18T23:05:37.581Z,15.97
2023-03-18T23:08:40.761Z,17.57
2023-03-18T23:11:45.078Z,18.13
2023-03-18T23:14:48.604Z,18.57
2023-03-18T23:17:53.137Z,16.47
2023-03-18T23:20:56.430Z,17.53
2023-03-18T23:23:59.623Z,17.57
2023-03-18T23:27:02.829Z,17.90
2023-03-18T23:30:07.279Z,18.90
2023-03-18T23:33:11.990Z,16.57
2023-03-18T23:36:15.251Z,17.90
2023-03-18T23:39:18.460Z,16.43
2023-03-18T23:42:22.378Z,17.13
2023-03-18T23:45:27.105Z,18.50
2023-03-18T23:48:32.031Z,16.30
2023-03-18T23:51:35.193Z,16.50
2023-03-18T23:54:39.504Z,16.70
2023-03-18T23:57:42.746Z,14.00
